| Date | Time | Temp. (oF) | Dew Point (oF) | Rel. Hum. (%) | Press. (in.) | Wind Dir. | Wind Speed (mph) | Hourly Rainfall (in.) |
|
|---|---|---|---|---|---|---|---|---|---|
| 1 | 12/03 | 00:00 | 32 | 32 | 100 | 30.36 | SSW | 0 | 0.00 |
| 2 | 12/02 | 23:00 | 33 | 32 | 97 | 30.35 | W | 0 | 0.00 |
| 3 | 12/02 | 22:00 | 35 | 34 | 97 | 30.37 | W | 0 | 0.00 |
| 4 | 12/02 | 21:00 | 36 | 34 | 95 | 30.34 | W | 0 | 0.00 |
| 5 | 12/02 | 20:00 | 38 | 35 | 90 | 30.35 | W | 0 | 0.00 |
| 6 | 12/02 | 19:00 | 41 | 36 | 83 | 30.34 | W | 0 | 0.00 |
| 7 | 12/02 | 18:00 | 44 | 37 | 78 | 30.33 | WSW | 0 | 0.00 |
| 8 | 12/02 | 17:00 | 48 | 38 | 70 | 30.32 | W | 2 | 0.00 |
| 9 | 12/02 | 16:00 | 50 | 39 | 67 | 30.32 | WNW | 3 | 0.00 |
| 10 | 12/02 | 15:00 | 50 | 39 | 66 | 30.30 | NW | 4 | 0.00 |
| 11 | 12/02 | 14:00 | 49 | 38 | 67 | 30.30 | N | 2 | 0.00 |
| 12 | 12/02 | 13:00 | 49 | 37 | 65 | 30.31 | NNW | 3 | 0.00 |
| 13 | 12/02 | 12:00 | 49 | 38 | 68 | 30.32 | WNW | 6 | 0.00 |
| 14 | 12/02 | 11:00 | 48 | 39 | 71 | 30.33 | NW | 8 | 0.00 |
| 15 | 12/02 | 10:00 | 46 | 41 | 84 | 30.33 | W | 5 | 0.00 |
| 16 | 12/02 | 09:00 | 40 | 38 | 96 | 30.32 | WSW | 1 | 0.00 |
| 17 | 12/02 | 08:00 | 39 | 36 | 90 | 30.32 | WNW | 2 | 0.00 |
| 18 | 12/02 | 07:00 | 39 | 35 | 88 | 30.31 | W | 0 | 0.00 |
| 19 | 12/02 | 06:00 | 40 | 35 | 84 | 30.29 | W | 0 | 0.00 |
| 20 | 12/02 | 05:00 | 42 | 36 | 81 | 30.27 | WNW | 2 | 0.00 |
| 21 | 12/02 | 04:00 | 42 | 36 | 82 | 30.25 | WNW | 2 | 0.00 |
| 22 | 12/02 | 03:00 | 42 | 36 | 82 | 30.24 | WNW | 3 | 0.00 |
| 23 | 12/02 | 02:00 | 43 | 37 | 81 | 30.23 | NW | 3 | 0.00 |
| 24 | 12/02 | 01:00 | 45 | 37 | 76 | 30.22 | WNW | 3 | 0.00 |